Overview Statistics Trail Chart Weather Telemetry Raw packets
 

This is the latest recevied weather packets stored in our database for station/object ED4YAF-13. If no packets are shown the sender has not sent any weather packets the latest 10 day(s).

<< 29 30 31 32 33 34 35 >>
Time Temp. Humidity Pressure Rain* Wind** Luminosity Snow
1787892228 6.11° C 79% 1021.2 hPa - - - -
1787891322 6.11° C 80% 1021.4 hPa - - - -
1787890422 6.11° C 82% 1021.1 hPa - - - -
1787889522 6.67° C 82% 1021.1 hPa - - - -
1787888610 6.67° C 83% 1021.2 hPa - - - -
1787887710 6.67° C 85% 1021.5 hPa - - - -
1787886810 6.67° C 86% 1021.3 hPa - - - -
1787885910 6.67° C 85% 1021.5 hPa - - - -
1787885010 7.22° C 83% 1021 hPa - - - -
1787884110 7.22° C 83% 1021.1 hPa - - - -
1787883210 7.22° C 82% 1020.9 hPa - - - -
1787882310 7.22° C 82% 1021.2 hPa - - - -
1787881398 7.22° C 81% 1021 hPa - - - -
1787880498 7.22° C 80% 1020.7 hPa - - - -
1787879597 7.78° C 79% 1020.7 hPa - - - -
1787878698 7.78° C 79% 1020.6 hPa - - - -
1787877788 7.78° C 79% 1020.7 hPa - - - -
1787876871 8.33° C 78% 1020.8 hPa - - - -
1787875971 8.33° C 77% 1020.4 hPa - - - -
1787875071 8.89° C 76% 1020.1 hPa - - - -
1787874171 8.89° C 72% 1019.8 hPa - - - -
1787873264 9.44° C 72% 1019.8 hPa - - - -
1787872350 9.44° C 71% 1019.7 hPa - - - -
1787871450 9.44° C 71% 1019.6 hPa - - - -
1787869650 9.44° C 69% 1019.1 hPa - - - -

* Rain since midnight (hover to see other rain measurements)
** Current wind speed in m/s (hover to see current wind gust speed)